sensor_id;sensor_type;location;lat;lon;timestamp;P1;durP1;ratioP1;P2;durP2;ratioP2
62014;SDS011;47970;52.396;9.586;2022-12-18T00:00:41;7.75;;;4.15;;
62014;SDS011;47970;52.396;9.586;2022-12-18T00:03:07;10.38;;;4.22;;
62014;SDS011;47970;52.396;9.586;2022-12-18T00:05:32;7.55;;;3.65;;
62014;SDS011;47970;52.396;9.586;2022-12-18T00:07:58;9.98;;;4.72;;
62014;SDS011;47970;52.396;9.586;2022-12-18T00:10:23;12.35;;;5.40;;
62014;SDS011;47970;52.396;9.586;2022-12-18T00:12:48;8.45;;;5.15;;
62014;SDS011;47970;52.396;9.586;2022-12-18T00:15:13;8.18;;;4.47;;
62014;SDS011;47970;52.396;9.586;2022-12-18T00:17:39;10.43;;;4.50;;
62014;SDS011;47970;52.396;9.586;2022-12-18T00:20:04;10.48;;;4.72;;
62014;SDS011;47970;52.396;9.586;2022-12-18T00:22:29;10.10;;;4.55;;
62014;SDS011;47970;52.396;9.586;2022-12-18T00:24:55;10.57;;;3.80;;
62014;SDS011;47970;52.396;9.586;2022-12-18T00:27:20;9.00;;;3.80;;
62014;SDS011;47970;52.396;9.586;2022-12-18T00:29:45;8.80;;;4.18;;
62014;SDS011;47970;52.396;9.586;2022-12-18T00:32:10;8.23;;;4.13;;
62014;SDS011;47970;52.396;9.586;2022-12-18T00:34:35;17.48;;;5.03;;
62014;SDS011;47970;52.396;9.586;2022-12-18T00:37:01;9.60;;;4.07;;
62014;SDS011;47970;52.396;9.586;2022-12-18T00:39:26;9.95;;;4.22;;
62014;SDS011;47970;52.396;9.586;2022-12-18T00:41:51;11.35;;;4.32;;
62014;SDS011;47970;52.396;9.586;2022-12-18T00:44:35;17.27;;;4.38;;
62014;SDS011;47970;52.396;9.586;2022-12-18T00:47:00;10.45;;;4.43;;
62014;SDS011;47970;52.396;9.586;2022-12-18T00:49:25;12.25;;;4.55;;
62014;SDS011;47970;52.396;9.586;2022-12-18T00:51:50;14.15;;;4.47;;
62014;SDS011;47970;52.396;9.586;2022-12-18T00:54:16;9.77;;;4.38;;
62014;SDS011;47970;52.396;9.586;2022-12-18T00:56:41;8.45;;;4.13;;
62014;SDS011;47970;52.396;9.586;2022-12-18T00:59:06;7.30;;;4.07;;
62014;SDS011;47970;52.396;9.586;2022-12-18T01:01:32;9.63;;;4.60;;
62014;SDS011;47970;52.396;9.586;2022-12-18T01:03:57;8.00;;;4.18;;
62014;SDS011;47970;52.396;9.586;2022-12-18T01:06:22;11.30;;;4.55;;
62014;SDS011;47970;52.396;9.586;2022-12-18T01:08:48;8.85;;;3.78;;
62014;SDS011;47970;52.396;9.586;2022-12-18T01:11:15;9.70;;;4.28;;
62014;SDS011;47970;52.396;9.586;2022-12-18T01:13:41;13.77;;;4.15;;
62014;SDS011;47970;52.396;9.586;2022-12-18T01:16:06;12.10;;;4.45;;
62014;SDS011;47970;52.396;9.586;2022-12-18T01:18:32;15.15;;;5.30;;
62014;SDS011;47970;52.396;9.586;2022-12-18T01:20:57;12.93;;;5.20;;
62014;SDS011;47970;52.396;9.586;2022-12-18T01:23:23;7.85;;;3.97;;
62014;SDS011;47970;52.396;9.586;2022-12-18T01:25:48;9.68;;;3.78;;
62014;SDS011;47970;52.396;9.586;2022-12-18T01:28:13;10.10;;;4.53;;
62014;SDS011;47970;52.396;9.586;2022-12-18T01:30:39;10.88;;;4.63;;
62014;SDS011;47970;52.396;9.586;2022-12-18T01:33:04;8.07;;;4.33;;
62014;SDS011;47970;52.396;9.586;2022-12-18T01:35:29;10.60;;;4.47;;
62014;SDS011;47970;52.396;9.586;2022-12-18T01:37:55;8.98;;;3.95;;
62014;SDS011;47970;52.396;9.586;2022-12-18T01:40:20;8.10;;;3.75;;
62014;SDS011;47970;52.396;9.586;2022-12-18T01:42:49;11.30;;;3.40;;
62014;SDS011;47970;52.396;9.586;2022-12-18T01:47:55;11.83;;;5.87;;
62014;SDS011;47970;52.396;9.586;2022-12-18T01:52:46;7.45;;;4.00;;
62014;SDS011;47970;52.396;9.586;2022-12-18T01:55:12;6.72;;;3.92;;
62014;SDS011;47970;52.396;9.586;2022-12-18T01:57:39;11.30;;;4.05;;
62014;SDS011;47970;52.396;9.586;2022-12-18T02:00:07;12.43;;;4.82;;
62014;SDS011;47970;52.396;9.586;2022-12-18T02:02:33;10.07;;;4.40;;
62014;SDS011;47970;52.396;9.586;2022-12-18T02:04:58;8.35;;;3.88;;
62014;SDS011;47970;52.396;9.586;2022-12-18T02:07:32;8.23;;;4.10;;
62014;SDS011;47970;52.396;9.586;2022-12-18T02:10:01;9.30;;;4.70;;
62014;SDS011;47970;52.396;9.586;2022-12-18T02:12:38;7.28;;;4.10;;
62014;SDS011;47970;52.396;9.586;2022-12-18T02:15:11;8.95;;;4.07;;
62014;SDS011;47970;52.396;9.586;2022-12-18T02:22:40;8.40;;;4.90;;
62014;SDS011;47970;52.396;9.586;2022-12-18T02:25:27;7.45;;;3.67;;
62014;SDS011;47970;52.396;9.586;2022-12-18T02:27:57;14.48;;;4.00;;
62014;SDS011;47970;52.396;9.586;2022-12-18T02:30:26;5.75;;;3.47;;
62014;SDS011;47970;52.396;9.586;2022-12-18T02:32:52;9.32;;;3.88;;
62014;SDS011;47970;52.396;9.586;2022-12-18T02:35:22;13.55;;;3.97;;
62014;SDS011;47970;52.396;9.586;2022-12-18T02:37:49;10.55;;;3.80;;
62014;SDS011;47970;52.396;9.586;2022-12-18T02:40:14;14.82;;;4.13;;
62014;SDS011;47970;52.396;9.586;2022-12-18T02:42:41;10.73;;;3.92;;
62014;SDS011;47970;52.396;9.586;2022-12-18T02:45:06;7.30;;;3.60;;
62014;SDS011;47970;52.396;9.586;2022-12-18T02:47:32;8.68;;;3.28;;
62014;SDS011;47970;52.396;9.586;2022-12-18T02:55:12;10.40;;;4.32;;
62014;SDS011;47970;52.396;9.586;2022-12-18T03:00:20;13.95;;;4.85;;
62014;SDS011;47970;52.396;9.586;2022-12-18T03:05:19;8.87;;;4.17;;
62014;SDS011;47970;52.396;9.586;2022-12-18T03:07:51;10.68;;;3.78;;
62014;SDS011;47970;52.396;9.586;2022-12-18T03:10:19;9.93;;;4.88;;
62014;SDS011;47970;52.396;9.586;2022-12-18T03:12:47;10.45;;;4.88;;
62014;SDS011;47970;52.396;9.586;2022-12-18T03:15:19;4.97;;;2.60;;
62014;SDS011;47970;52.396;9.586;2022-12-18T03:17:46;8.85;;;4.15;;
62014;SDS011;47970;52.396;9.586;2022-12-18T03:20:14;11.85;;;3.80;;
62014;SDS011;47970;52.396;9.586;2022-12-18T03:22:39;8.98;;;4.10;;
62014;SDS011;47970;52.396;9.586;2022-12-18T03:25:07;5.28;;;3.05;;
62014;SDS011;47970;52.396;9.586;2022-12-18T03:27:33;7.72;;;3.50;;
62014;SDS011;47970;52.396;9.586;2022-12-18T03:30:05;8.25;;;3.13;;
62014;SDS011;47970;52.396;9.586;2022-12-18T03:32:38;8.85;;;3.55;;
62014;SDS011;47970;52.396;9.586;2022-12-18T03:35:04;11.65;;;4.35;;
62014;SDS011;47970;52.396;9.586;2022-12-18T03:37:30;9.77;;;3.95;;
62014;SDS011;47970;52.396;9.586;2022-12-18T03:39:55;6.57;;;3.67;;
62014;SDS011;47970;52.396;9.586;2022-12-18T03:47:15;9.50;;;3.42;;
62014;SDS011;47970;52.396;9.586;2022-12-18T03:52:11;8.75;;;4.07;;
62014;SDS011;47970;52.396;9.586;2022-12-18T03:54:38;13.38;;;5.43;;
62014;SDS011;47970;52.396;9.586;2022-12-18T03:57:05;7.88;;;3.53;;
62014;SDS011;47970;52.396;9.586;2022-12-18T03:59:31;10.05;;;4.32;;
62014;SDS011;47970;52.396;9.586;2022-12-18T04:01:57;5.75;;;3.45;;
62014;SDS011;47970;52.396;9.586;2022-12-18T04:04:23;7.57;;;4.13;;
62014;SDS011;47970;52.396;9.586;2022-12-18T04:06:49;9.00;;;4.13;;
62014;SDS011;47970;52.396;9.586;2022-12-18T04:09:15;13.82;;;4.40;;
62014;SDS011;47970;52.396;9.586;2022-12-18T04:11:41;6.95;;;3.20;;
62014;SDS011;47970;52.396;9.586;2022-12-18T04:14:08;8.45;;;3.50;;
62014;SDS011;47970;52.396;9.586;2022-12-18T04:16:33;9.05;;;4.15;;
62014;SDS011;47970;52.396;9.586;2022-12-18T04:18:59;11.17;;;4.77;;
62014;SDS011;47970;52.396;9.586;2022-12-18T04:21:24;10.20;;;4.32;;
62014;SDS011;47970;52.396;9.586;2022-12-18T04:23:49;8.75;;;4.43;;
62014;SDS011;47970;52.396;9.586;2022-12-18T04:26:14;7.60;;;3.90;;
62014;SDS011;47970;52.396;9.586;2022-12-18T04:28:39;8.45;;;3.90;;
62014;SDS011;47970;52.396;9.586;2022-12-18T04:31:05;7.95;;;3.33;;
62014;SDS011;47970;52.396;9.586;2022-12-18T04:33:30;8.07;;;3.88;;
62014;SDS011;47970;52.396;9.586;2022-12-18T04:35:55;11.77;;;5.15;;
62014;SDS011;47970;52.396;9.586;2022-12-18T04:38:20;8.57;;;3.67;;
62014;SDS011;47970;52.396;9.586;2022-12-18T04:40:45;12.88;;;5.55;;
62014;SDS011;47970;52.396;9.586;2022-12-18T04:43:11;8.93;;;4.32;;
62014;SDS011;47970;52.396;9.586;2022-12-18T04:45:36;9.63;;;4.53;;
62014;SDS011;47970;52.396;9.586;2022-12-18T04:48:02;13.90;;;4.75;;
62014;SDS011;47970;52.396;9.586;2022-12-18T04:50:27;13.70;;;5.10;;
62014;SDS011;47970;52.396;9.586;2022-12-18T04:52:53;13.13;;;4.32;;
62014;SDS011;47970;52.396;9.586;2022-12-18T04:55:18;16.90;;;4.38;;
62014;SDS011;47970;52.396;9.586;2022-12-18T04:57:43;7.68;;;3.58;;
62014;SDS011;47970;52.396;9.586;2022-12-18T05:00:08;6.57;;;3.47;;
62014;SDS011;47970;52.396;9.586;2022-12-18T05:02:34;9.75;;;3.78;;
62014;SDS011;47970;52.396;9.586;2022-12-18T05:04:59;10.57;;;3.60;;
62014;SDS011;47970;52.396;9.586;2022-12-18T05:07:24;19.93;;;4.93;;
62014;SDS011;47970;52.396;9.586;2022-12-18T05:09:50;7.82;;;3.90;;
62014;SDS011;47970;52.396;9.586;2022-12-18T05:12:15;8.32;;;4.03;;
62014;SDS011;47970;52.396;9.586;2022-12-18T05:14:40;9.50;;;4.45;;
62014;SDS011;47970;52.396;9.586;2022-12-18T05:17:05;10.35;;;3.88;;
62014;SDS011;47970;52.396;9.586;2022-12-18T05:19:30;11.02;;;4.35;;
62014;SDS011;47970;52.396;9.586;2022-12-18T05:21:56;10.60;;;4.50;;
62014;SDS011;47970;52.396;9.586;2022-12-18T05:24:21;10.85;;;4.40;;
62014;SDS011;47970;52.396;9.586;2022-12-18T05:26:46;7.00;;;3.83;;
62014;SDS011;47970;52.396;9.586;2022-12-18T05:29:11;11.75;;;3.92;;
62014;SDS011;47970;52.396;9.586;2022-12-18T05:31:37;5.97;;;3.00;;
62014;SDS011;47970;52.396;9.586;2022-12-18T05:34:02;9.48;;;5.03;;
62014;SDS011;47970;52.396;9.586;2022-12-18T05:36:28;9.07;;;4.17;;
62014;SDS011;47970;52.396;9.586;2022-12-18T05:38:53;8.80;;;3.70;;
62014;SDS011;47970;52.396;9.586;2022-12-18T05:41:18;10.15;;;4.03;;
62014;SDS011;47970;52.396;9.586;2022-12-18T05:43:43;6.38;;;3.35;;
62014;SDS011;47970;52.396;9.586;2022-12-18T05:46:11;9.98;;;3.53;;
62014;SDS011;47970;52.396;9.586;2022-12-18T05:48:37;12.30;;;3.58;;
62014;SDS011;47970;52.396;9.586;2022-12-18T05:51:06;10.95;;;5.22;;
62014;SDS011;47970;52.396;9.586;2022-12-18T05:53:31;7.53;;;3.28;;
62014;SDS011;47970;52.396;9.586;2022-12-18T05:55:59;7.40;;;3.83;;
62014;SDS011;47970;52.396;9.586;2022-12-18T05:58:24;9.20;;;3.85;;
62014;SDS011;47970;52.396;9.586;2022-12-18T06:00:50;8.27;;;4.10;;
62014;SDS011;47970;52.396;9.586;2022-12-18T06:03:15;11.50;;;4.17;;
62014;SDS011;47970;52.396;9.586;2022-12-18T06:05:41;9.65;;;4.10;;
62014;SDS011;47970;52.396;9.586;2022-12-18T06:08:07;7.97;;;3.70;;
62014;SDS011;47970;52.396;9.586;2022-12-18T06:10:33;8.38;;;3.83;;
62014;SDS011;47970;52.396;9.586;2022-12-18T06:12:58;8.00;;;4.28;;
62014;SDS011;47970;52.396;9.586;2022-12-18T06:15:23;18.05;;;4.05;;
62014;SDS011;47970;52.396;9.586;2022-12-18T06:17:49;7.93;;;3.65;;
62014;SDS011;47970;52.396;9.586;2022-12-18T06:20:14;5.72;;;3.42;;
62014;SDS011;47970;52.396;9.586;2022-12-18T06:22:39;6.88;;;3.80;;
62014;SDS011;47970;52.396;9.586;2022-12-18T06:25:05;8.73;;;3.40;;
62014;SDS011;47970;52.396;9.586;2022-12-18T06:27:30;6.68;;;2.47;;
62014;SDS011;47970;52.396;9.586;2022-12-18T06:29:56;12.20;;;3.95;;
62014;SDS011;47970;52.396;9.586;2022-12-18T06:32:22;5.90;;;2.75;;
62014;SDS011;47970;52.396;9.586;2022-12-18T06:34:47;7.60;;;3.20;;
62014;SDS011;47970;52.396;9.586;2022-12-18T06:37:12;12.47;;;3.57;;
62014;SDS011;47970;52.396;9.586;2022-12-18T06:39:37;6.93;;;3.70;;
62014;SDS011;47970;52.396;9.586;2022-12-18T06:42:03;9.23;;;3.70;;
62014;SDS011;47970;52.396;9.586;2022-12-18T06:44:28;6.70;;;3.25;;
62014;SDS011;47970;52.396;9.586;2022-12-18T06:46:53;6.53;;;3.65;;
62014;SDS011;47970;52.396;9.586;2022-12-18T06:49:18;9.52;;;3.65;;
62014;SDS011;47970;52.396;9.586;2022-12-18T06:51:44;14.07;;;4.15;;
62014;SDS011;47970;52.396;9.586;2022-12-18T06:54:09;6.10;;;2.77;;
62014;SDS011;47970;52.396;9.586;2022-12-18T06:56:34;8.85;;;3.72;;
62014;SDS011;47970;52.396;9.586;2022-12-18T06:58:59;8.65;;;3.67;;
62014;SDS011;47970;52.396;9.586;2022-12-18T07:01:25;6.50;;;3.65;;
62014;SDS011;47970;52.396;9.586;2022-12-18T07:03:54;5.37;;;3.43;;
62014;SDS011;47970;52.396;9.586;2022-12-18T07:06:20;5.72;;;3.22;;
62014;SDS011;47970;52.396;9.586;2022-12-18T07:08:46;5.47;;;2.72;;
62014;SDS011;47970;52.396;9.586;2022-12-18T07:11:12;5.57;;;2.70;;
62014;SDS011;47970;52.396;9.586;2022-12-18T07:13:37;9.80;;;3.88;;
62014;SDS011;47970;52.396;9.586;2022-12-18T07:16:03;11.27;;;4.13;;
62014;SDS011;47970;52.396;9.586;2022-12-18T07:18:29;9.15;;;4.53;;
62014;SDS011;47970;52.396;9.586;2022-12-18T07:20:54;5.83;;;3.10;;
62014;SDS011;47970;52.396;9.586;2022-12-18T07:23:19;7.10;;;3.47;;
62014;SDS011;47970;52.396;9.586;2022-12-18T07:25:44;8.37;;;2.90;;
62014;SDS011;47970;52.396;9.586;2022-12-18T07:28:09;8.63;;;3.63;;
62014;SDS011;47970;52.396;9.586;2022-12-18T07:30:36;8.57;;;3.75;;
62014;SDS011;47970;52.396;9.586;2022-12-18T07:33:02;12.73;;;3.03;;
62014;SDS011;47970;52.396;9.586;2022-12-18T07:35:27;9.30;;;3.58;;
62014;SDS011;47970;52.396;9.586;2022-12-18T07:37:52;9.73;;;4.17;;
62014;SDS011;47970;52.396;9.586;2022-12-18T07:40:17;5.93;;;3.17;;
62014;SDS011;47970;52.396;9.586;2022-12-18T07:42:42;9.00;;;3.28;;
62014;SDS011;47970;52.396;9.586;2022-12-18T07:45:08;9.07;;;3.47;;
62014;SDS011;47970;52.396;9.586;2022-12-18T07:47:34;16.13;;;4.68;;
62014;SDS011;47970;52.396;9.586;2022-12-18T07:50:00;6.43;;;3.80;;
62014;SDS011;47970;52.396;9.586;2022-12-18T07:52:25;7.67;;;3.17;;
62014;SDS011;47970;52.396;9.586;2022-12-18T07:54:50;6.32;;;3.00;;
62014;SDS011;47970;52.396;9.586;2022-12-18T07:57:16;6.10;;;2.97;;
62014;SDS011;47970;52.396;9.586;2022-12-18T07:59:41;9.13;;;2.92;;
62014;SDS011;47970;52.396;9.586;2022-12-18T08:02:06;7.45;;;3.78;;
62014;SDS011;47970;52.396;9.586;2022-12-18T08:04:35;8.18;;;3.35;;
62014;SDS011;47970;52.396;9.586;2022-12-18T08:07:00;10.98;;;3.72;;
62014;SDS011;47970;52.396;9.586;2022-12-18T08:09:25;6.45;;;3.72;;
62014;SDS011;47970;52.396;9.586;2022-12-18T08:11:50;12.52;;;3.15;;
62014;SDS011;47970;52.396;9.586;2022-12-18T08:14:15;6.47;;;2.60;;
62014;SDS011;47970;52.396;9.586;2022-12-18T08:16:41;8.82;;;3.33;;
62014;SDS011;47970;52.396;9.586;2022-12-18T08:19:06;5.25;;;2.78;;
62014;SDS011;47970;52.396;9.586;2022-12-18T08:21:31;7.90;;;3.40;;
62014;SDS011;47970;52.396;9.586;2022-12-18T08:23:57;8.20;;;4.00;;
62014;SDS011;47970;52.396;9.586;2022-12-18T08:26:24;13.27;;;3.88;;
62014;SDS011;47970;52.396;9.586;2022-12-18T08:28:50;11.55;;;3.83;;
62014;SDS011;47970;52.396;9.586;2022-12-18T08:31:15;5.28;;;2.67;;
62014;SDS011;47970;52.396;9.586;2022-12-18T08:33:40;7.53;;;3.50;;
62014;SDS011;47970;52.396;9.586;2022-12-18T08:36:06;9.32;;;5.22;;
62014;SDS011;47970;52.396;9.586;2022-12-18T08:38:31;9.13;;;3.60;;
62014;SDS011;47970;52.396;9.586;2022-12-18T08:41:00;8.38;;;3.40;;
62014;SDS011;47970;52.396;9.586;2022-12-18T08:43:26;11.07;;;3.87;;
62014;SDS011;47970;52.396;9.586;2022-12-18T08:46:09;9.65;;;3.60;;
62014;SDS011;47970;52.396;9.586;2022-12-18T08:48:35;9.07;;;3.50;;
62014;SDS011;47970;52.396;9.586;2022-12-18T08:51:00;6.50;;;3.13;;
62014;SDS011;47970;52.396;9.586;2022-12-18T08:53:26;7.43;;;3.40;;
62014;SDS011;47970;52.396;9.586;2022-12-18T08:55:51;9.18;;;3.92;;
62014;SDS011;47970;52.396;9.586;2022-12-18T08:58:17;6.43;;;3.15;;
62014;SDS011;47970;52.396;9.586;2022-12-18T09:00:42;7.53;;;3.03;;
62014;SDS011;47970;52.396;9.586;2022-12-18T09:03:13;11.00;;;4.50;;
62014;SDS011;47970;52.396;9.586;2022-12-18T09:05:39;9.60;;;3.90;;
62014;SDS011;47970;52.396;9.586;2022-12-18T09:08:04;8.57;;;3.38;;
62014;SDS011;47970;52.396;9.586;2022-12-18T09:10:29;6.28;;;3.08;;
62014;SDS011;47970;52.396;9.586;2022-12-18T09:12:54;8.57;;;3.63;;
62014;SDS011;47970;52.396;9.586;2022-12-18T09:15:21;11.60;;;3.58;;
62014;SDS011;47970;52.396;9.586;2022-12-18T09:17:46;7.88;;;3.20;;
62014;SDS011;47970;52.396;9.586;2022-12-18T09:20:11;8.60;;;4.35;;
62014;SDS011;47970;52.396;9.586;2022-12-18T09:22:36;9.38;;;3.50;;
62014;SDS011;47970;52.396;9.586;2022-12-18T09:25:04;8.47;;;3.63;;
62014;SDS011;47970;52.396;9.586;2022-12-18T09:27:32;16.38;;;2.78;;
62014;SDS011;47970;52.396;9.586;2022-12-18T09:29:58;8.73;;;3.88;;
62014;SDS011;47970;52.396;9.586;2022-12-18T09:32:23;8.00;;;3.17;;
62014;SDS011;47970;52.396;9.586;2022-12-18T09:34:48;5.05;;;2.63;;
62014;SDS011;47970;52.396;9.586;2022-12-18T09:37:14;6.72;;;2.75;;
62014;SDS011;47970;52.396;9.586;2022-12-18T09:39:39;6.63;;;2.17;;
62014;SDS011;47970;52.396;9.586;2022-12-18T09:42:04;7.35;;;3.15;;
62014;SDS011;47970;52.396;9.586;2022-12-18T09:44:50;12.75;;;3.50;;
62014;SDS011;47970;52.396;9.586;2022-12-18T09:49:45;7.77;;;2.87;;
62014;SDS011;47970;52.396;9.586;2022-12-18T09:54:42;11.07;;;3.63;;
62014;SDS011;47970;52.396;9.586;2022-12-18T09:57:21;4.25;;;2.38;;
62014;SDS011;47970;52.396;9.586;2022-12-18T09:59:51;8.00;;;3.40;;
62014;SDS011;47970;52.396;9.586;2022-12-18T10:02:24;10.10;;;3.38;;
62014;SDS011;47970;52.396;9.586;2022-12-18T10:05:02;3.00;;;1.63;;
62014;SDS011;47970;52.396;9.586;2022-12-18T10:15:07;6.47;;;2.80;;
62014;SDS011;47970;52.396;9.586;2022-12-18T10:22:50;8.38;;;2.80;;
62014;SDS011;47970;52.396;9.586;2022-12-18T10:28:12;3.03;;;1.90;;
62014;SDS011;47970;52.396;9.586;2022-12-18T10:30:38;4.55;;;2.15;;
62014;SDS011;47970;52.396;9.586;2022-12-18T10:33:03;3.72;;;1.75;;
62014;SDS011;47970;52.396;9.586;2022-12-18T10:35:28;7.40;;;2.07;;
62014;SDS011;47970;52.396;9.586;2022-12-18T10:43:24;4.35;;;2.13;;
62014;SDS011;47970;52.396;9.586;2022-12-18T10:48:24;6.03;;;2.53;;
62014;SDS011;47970;52.396;9.586;2022-12-18T10:50:50;6.75;;;2.13;;
62014;SDS011;47970;52.396;9.586;2022-12-18T10:53:21;7.85;;;2.75;;
62014;SDS011;47970;52.396;9.586;2022-12-18T10:55:47;6.32;;;2.58;;
62014;SDS011;47970;52.396;9.586;2022-12-18T10:58:23;4.03;;;1.65;;
62014;SDS011;47970;52.396;9.586;2022-12-18T11:03:31;9.00;;;2.22;;
62014;SDS011;47970;52.396;9.586;2022-12-18T11:08:31;7.75;;;2.65;;
62014;SDS011;47970;52.396;9.586;2022-12-18T11:10:56;6.47;;;2.87;;
62014;SDS011;47970;52.396;9.586;2022-12-18T11:13:25;5.95;;;2.35;;
62014;SDS011;47970;52.396;9.586;2022-12-18T11:15:50;7.17;;;2.27;;
62014;SDS011;47970;52.396;9.586;2022-12-18T11:18:26;4.18;;;2.13;;
62014;SDS011;47970;52.396;9.586;2022-12-18T11:20:53;4.85;;;1.90;;
62014;SDS011;47970;52.396;9.586;2022-12-18T11:23:19;6.95;;;3.08;;
62014;SDS011;47970;52.396;9.586;2022-12-18T11:25:59;3.58;;;2.08;;
62014;SDS011;47970;52.396;9.586;2022-12-18T11:28:36;5.25;;;1.70;;
62014;SDS011;47970;52.396;9.586;2022-12-18T11:31:09;3.85;;;1.90;;
62014;SDS011;47970;52.396;9.586;2022-12-18T11:33:37;5.10;;;2.17;;
62014;SDS011;47970;52.396;9.586;2022-12-18T11:36:02;4.53;;;2.13;;
62014;SDS011;47970;52.396;9.586;2022-12-18T11:38:29;3.05;;;1.50;;
62014;SDS011;47970;52.396;9.586;2022-12-18T11:41:00;4.35;;;2.15;;
62014;SDS011;47970;52.396;9.586;2022-12-18T11:43:29;3.30;;;1.95;;
62014;SDS011;47970;52.396;9.586;2022-12-18T11:45:58;6.53;;;1.90;;
62014;SDS011;47970;52.396;9.586;2022-12-18T11:48:32;4.15;;;2.13;;
62014;SDS011;47970;52.396;9.586;2022-12-18T11:51:01;4.35;;;1.92;;
62014;SDS011;47970;52.396;9.586;2022-12-18T11:53:28;6.03;;;2.72;;
62014;SDS011;47970;52.396;9.586;2022-12-18T11:58:48;4.85;;;2.15;;
62014;SDS011;47970;52.396;9.586;2022-12-18T12:06:21;5.75;;;2.72;;
62014;SDS011;47970;52.396;9.586;2022-12-18T12:11:17;7.73;;;2.47;;
62014;SDS011;47970;52.396;9.586;2022-12-18T12:21:39;5.30;;;2.55;;
62014;SDS011;47970;52.396;9.586;2022-12-18T12:26:49;4.15;;;2.30;;
62014;SDS011;47970;52.396;9.586;2022-12-18T12:34:18;6.45;;;3.13;;
62014;SDS011;47970;52.396;9.586;2022-12-18T12:39:10;6.13;;;2.70;;
62014;SDS011;47970;52.396;9.586;2022-12-18T12:41:37;6.90;;;3.22;;
62014;SDS011;47970;52.396;9.586;2022-12-18T12:44:24;7.32;;;3.55;;
62014;SDS011;47970;52.396;9.586;2022-12-18T12:46:52;7.72;;;3.70;;
62014;SDS011;47970;52.396;9.586;2022-12-18T12:49:18;5.78;;;2.60;;
62014;SDS011;47970;52.396;9.586;2022-12-18T12:51:59;6.68;;;3.28;;
62014;SDS011;47970;52.396;9.586;2022-12-18T12:54:25;6.55;;;2.63;;
62014;SDS011;47970;52.396;9.586;2022-12-18T13:02:05;15.05;;;3.35;;
62014;SDS011;47970;52.396;9.586;2022-12-18T13:04:41;8.45;;;2.72;;
62014;SDS011;47970;52.396;9.586;2022-12-18T13:07:18;3.25;;;1.75;;
62014;SDS011;47970;52.396;9.586;2022-12-18T13:12:28;7.32;;;2.22;;
62014;SDS011;47970;52.396;9.586;2022-12-18T13:15:13;4.30;;;2.15;;
62014;SDS011;47970;52.396;9.586;2022-12-18T13:17:45;10.55;;;2.28;;
62014;SDS011;47970;52.396;9.586;2022-12-18T13:20:11;4.65;;;2.20;;
62014;SDS011;47970;52.396;9.586;2022-12-18T13:22:41;2.97;;;1.58;;
62014;SDS011;47970;52.396;9.586;2022-12-18T13:28:01;6.38;;;2.30;;
62014;SDS011;47970;52.396;9.586;2022-12-18T13:35:38;5.80;;;2.13;;
62014;SDS011;47970;52.396;9.586;2022-12-18T13:38:19;6.35;;;2.17;;
62014;SDS011;47970;52.396;9.586;2022-12-18T13:45:48;9.32;;;3.72;;
62014;SDS011;47970;52.396;9.586;2022-12-18T13:50:39;7.38;;;2.42;;
62014;SDS011;47970;52.396;9.586;2022-12-18T13:53:04;8.17;;;3.00;;
62014;SDS011;47970;52.396;9.586;2022-12-18T13:55:30;6.90;;;2.95;;
62014;SDS011;47970;52.396;9.586;2022-12-18T13:58:04;6.32;;;2.50;;
62014;SDS011;47970;52.396;9.586;2022-12-18T14:00:30;4.97;;;2.28;;
62014;SDS011;47970;52.396;9.586;2022-12-18T14:02:55;8.43;;;2.58;;
62014;SDS011;47970;52.396;9.586;2022-12-18T14:05:25;5.57;;;3.25;;
62014;SDS011;47970;52.396;9.586;2022-12-18T14:07:50;6.78;;;3.05;;
62014;SDS011;47970;52.396;9.586;2022-12-18T14:10:16;10.10;;;3.70;;
62014;SDS011;47970;52.396;9.586;2022-12-18T14:12:44;5.15;;;2.58;;
62014;SDS011;47970;52.396;9.586;2022-12-18T14:20:18;10.20;;;3.00;;
62014;SDS011;47970;52.396;9.586;2022-12-18T14:22:48;10.70;;;3.20;;
62014;SDS011;47970;52.396;9.586;2022-12-18T14:27:46;11.90;;;4.35;;
62014;SDS011;47970;52.396;9.586;2022-12-18T14:33:02;8.45;;;3.50;;
62014;SDS011;47970;52.396;9.586;2022-12-18T14:35:28;8.93;;;4.00;;
62014;SDS011;47970;52.396;9.586;2022-12-18T14:37:53;11.52;;;4.43;;
62014;SDS011;47970;52.396;9.586;2022-12-18T14:40:18;12.25;;;4.20;;
62014;SDS011;47970;52.396;9.586;2022-12-18T14:42:44;12.65;;;4.30;;
62014;SDS011;47970;52.396;9.586;2022-12-18T14:47:53;9.82;;;4.72;;
62014;SDS011;47970;52.396;9.586;2022-12-18T14:50:18;9.35;;;4.63;;
62014;SDS011;47970;52.396;9.586;2022-12-18T14:52:43;9.73;;;4.85;;
62014;SDS011;47970;52.396;9.586;2022-12-18T14:55:16;9.93;;;5.57;;
62014;SDS011;47970;52.396;9.586;2022-12-18T14:57:42;11.55;;;4.63;;
62014;SDS011;47970;52.396;9.586;2022-12-18T15:00:16;14.95;;;5.68;;
62014;SDS011;47970;52.396;9.586;2022-12-18T15:02:42;10.43;;;4.40;;
62014;SDS011;47970;52.396;9.586;2022-12-18T15:07:46;10.82;;;4.60;;
62014;SDS011;47970;52.396;9.586;2022-12-18T15:20:31;11.38;;;4.80;;
62014;SDS011;47970;52.396;9.586;2022-12-18T15:22:57;7.60;;;3.22;;
62014;SDS011;47970;52.396;9.586;2022-12-18T15:25:27;10.18;;;4.38;;
62014;SDS011;47970;52.396;9.586;2022-12-18T15:27:55;9.23;;;4.72;;
62014;SDS011;47970;52.396;9.586;2022-12-18T15:30:21;11.87;;;5.53;;
62014;SDS011;47970;52.396;9.586;2022-12-18T15:32:47;15.70;;;5.88;;
62014;SDS011;47970;52.396;9.586;2022-12-18T15:35:16;12.27;;;5.82;;
62014;SDS011;47970;52.396;9.586;2022-12-18T15:37:42;15.23;;;6.40;;
62014;SDS011;47970;52.396;9.586;2022-12-18T15:40:08;14.93;;;5.13;;
62014;SDS011;47970;52.396;9.586;2022-12-18T15:42:36;15.00;;;5.50;;
62014;SDS011;47970;52.396;9.586;2022-12-18T15:45:20;13.07;;;5.10;;
62014;SDS011;47970;52.396;9.586;2022-12-18T15:47:45;14.40;;;5.67;;
62014;SDS011;47970;52.396;9.586;2022-12-18T15:50:10;13.23;;;5.40;;
62014;SDS011;47970;52.396;9.586;2022-12-18T15:52:43;11.10;;;5.47;;
62014;SDS011;47970;52.396;9.586;2022-12-18T15:55:18;11.73;;;5.68;;
62014;SDS011;47970;52.396;9.586;2022-12-18T15:58:03;11.27;;;4.93;;
62014;SDS011;47970;52.396;9.586;2022-12-18T16:00:28;10.70;;;5.57;;
62014;SDS011;47970;52.396;9.586;2022-12-18T16:02:53;13.60;;;5.83;;
62014;SDS011;47970;52.396;9.586;2022-12-18T16:05:19;11.83;;;5.50;;
62014;SDS011;47970;52.396;9.586;2022-12-18T16:07:45;12.68;;;5.20;;
62014;SDS011;47970;52.396;9.586;2022-12-18T16:10:11;11.30;;;5.38;;
62014;SDS011;47970;52.396;9.586;2022-12-18T16:12:36;17.17;;;5.07;;
62014;SDS011;47970;52.396;9.586;2022-12-18T16:15:02;15.23;;;5.43;;
62014;SDS011;47970;52.396;9.586;2022-12-18T16:17:27;11.88;;;5.70;;
62014;SDS011;47970;52.396;9.586;2022-12-18T16:19:52;12.83;;;5.73;;
62014;SDS011;47970;52.396;9.586;2022-12-18T16:22:22;15.70;;;5.90;;
62014;SDS011;47970;52.396;9.586;2022-12-18T16:24:47;9.43;;;4.93;;
62014;SDS011;47970;52.396;9.586;2022-12-18T16:27:13;17.27;;;4.50;;
62014;SDS011;47970;52.396;9.586;2022-12-18T16:29:38;16.00;;;6.10;;
62014;SDS011;47970;52.396;9.586;2022-12-18T16:32:03;13.30;;;4.95;;
62014;SDS011;47970;52.396;9.586;2022-12-18T16:34:29;12.95;;;4.70;;
62014;SDS011;47970;52.396;9.586;2022-12-18T16:36:56;11.43;;;4.78;;
62014;SDS011;47970;52.396;9.586;2022-12-18T16:39:21;11.68;;;5.18;;
62014;SDS011;47970;52.396;9.586;2022-12-18T16:41:46;10.07;;;5.28;;
62014;SDS011;47970;52.396;9.586;2022-12-18T16:44:12;12.38;;;4.60;;
62014;SDS011;47970;52.396;9.586;2022-12-18T16:46:37;12.00;;;5.00;;
62014;SDS011;47970;52.396;9.586;2022-12-18T16:49:02;13.05;;;4.95;;
62014;SDS011;47970;52.396;9.586;2022-12-18T16:51:28;12.57;;;5.90;;
62014;SDS011;47970;52.396;9.586;2022-12-18T16:53:54;13.98;;;5.55;;
62014;SDS011;47970;52.396;9.586;2022-12-18T16:56:19;16.63;;;5.13;;
62014;SDS011;47970;52.396;9.586;2022-12-18T16:58:49;13.20;;;6.07;;
62014;SDS011;47970;52.396;9.586;2022-12-18T17:03:40;19.60;;;6.03;;